createdAt,value
2022-11-02T00:01:45.129Z,68.86
2022-11-02T00:06:46.528Z,69.11
2022-11-02T00:11:47.786Z,68.97
2022-11-02T00:16:49.567Z,69.24
2022-11-02T00:21:51.033Z,68.92
2022-11-02T00:26:53.714Z,68.69
2022-11-02T00:31:55.047Z,68.67
2022-11-02T00:36:56.357Z,67.59
2022-11-02T00:41:57.631Z,68.08
2022-11-02T00:46:58.981Z,68.77
2022-11-02T00:52:00.300Z,69.60
2022-11-02T01:02:08.121Z,70.01
2022-11-02T01:07:09.551Z,70.21
2022-11-02T01:12:11.087Z,70.08
2022-11-02T01:17:12.459Z,70.29
2022-11-02T01:22:13.759Z,70.21
2022-11-02T01:27:15.224Z,70.61
2022-11-02T01:32:16.527Z,71.01
2022-11-02T01:37:17.865Z,71.38
2022-11-02T01:42:25.881Z,71.01
2022-11-02T01:47:32.701Z,71.40
2022-11-02T01:52:39.172Z,70.52
2022-11-02T01:57:43.395Z,70.87
2022-11-02T02:02:51.400Z,70.95
2022-11-02T02:07:54.643Z,71.50
2022-11-02T02:12:56.000Z,72.01
2022-11-02T02:18:12.161Z,71.68
2022-11-02T02:23:36.958Z,72.16
2022-11-02T02:28:41.204Z,71.73
2022-11-02T02:33:55.172Z,72.54
2022-11-02T02:39:12.111Z,73.04
2022-11-02T02:44:20.422Z,73.55
2022-11-02T02:49:27.331Z,73.87
2022-11-02T02:54:37.035Z,74.67
2022-11-02T02:59:43.913Z,74.98
2022-11-02T03:04:45.303Z,74.87
2022-11-02T03:09:51.756Z,74.62
2022-11-02T03:15:11.175Z,74.06
2022-11-02T03:20:37.318Z,74.05
2022-11-02T03:26:00.250Z,73.91
2022-11-02T03:31:28.245Z,73.70
2022-11-02T03:36:37.691Z,74.21
2022-11-02T03:41:43.772Z,74.85
2022-11-02T03:46:46.535Z,75.12
2022-11-02T03:51:49.986Z,75.54
2022-11-02T03:56:56.574Z,75.20
2022-11-02T04:01:59.804Z,75.27
2022-11-02T04:07:01.282Z,76.02
2022-11-02T04:12:21.283Z,76.39
2022-11-02T04:17:41.095Z,76.35
2022-11-02T04:23:00.849Z,75.93
2022-11-02T04:28:08.514Z,75.71
2022-11-02T04:33:28.584Z,76.02
2022-11-02T04:38:43.021Z,77.05
2022-11-02T04:43:44.426Z,77.21
2022-11-02T04:48:46.281Z,77.61
2022-11-02T04:53:48.782Z,77.66
2022-11-02T04:58:52.163Z,78.28
2022-11-02T05:03:55.990Z,77.69
2022-11-02T05:08:57.265Z,78.23
2022-11-02T05:13:58.563Z,78.16
2022-11-02T05:18:59.859Z,77.61
2022-11-02T05:24:01.237Z,78.71
2022-11-02T05:29:02.546Z,78.17
2022-11-02T05:34:03.840Z,78.80
2022-11-02T05:39:05.157Z,78.67
2022-11-02T05:44:06.554Z,79.29
2022-11-02T05:49:07.896Z,79.95
2022-11-02T05:54:09.168Z,79.98
2022-11-02T05:59:10.502Z,80.22
2022-11-02T06:04:11.835Z,81.48
2022-11-02T06:09:13.272Z,81.40
2022-11-02T06:14:14.557Z,81.22
2022-11-02T06:19:15.883Z,81.18
2022-11-02T06:24:17.198Z,81.01
2022-11-02T06:29:18.474Z,80.94
2022-11-02T06:34:19.826Z,80.86
2022-11-02T06:39:21.475Z,80.43
2022-11-02T06:44:23.847Z,80.59
2022-11-02T06:49:25.179Z,80.50
2022-11-02T06:54:26.534Z,81.11
2022-11-02T06:59:27.844Z,81.08
2022-11-02T07:04:29.171Z,81.52
2022-11-02T07:09:30.525Z,81.14
2022-11-02T07:14:31.918Z,80.78
2022-11-02T07:19:33.479Z,79.90
2022-11-02T07:24:34.883Z,79.80
2022-11-02T07:29:36.152Z,79.67
2022-11-02T07:34:37.533Z,78.81
2022-11-02T07:39:38.850Z,78.59
2022-11-02T07:44:40.188Z,78.15
2022-11-02T07:49:41.568Z,77.10
2022-11-02T07:54:44.735Z,76.78
2022-11-02T07:59:46.284Z,75.99
2022-11-02T08:04:47.563Z,75.66
2022-11-02T08:09:48.900Z,75.15
2022-11-02T08:14:50.339Z,74.83
2022-11-02T08:19:51.656Z,74.54
2022-11-02T08:24:52.975Z,74.55
2022-11-02T08:29:54.324Z,74.25
2022-11-02T08:34:55.746Z,73.30
2022-11-02T08:39:57.105Z,71.87
2022-11-02T08:44:58.681Z,69.90
2022-11-02T08:50:00.046Z,67.50
2022-11-02T08:55:01.547Z,68.13
2022-11-02T09:00:03.387Z,68.44
2022-11-02T09:05:05.128Z,66.26
2022-11-02T09:10:07.646Z,63.96
2022-11-02T09:15:09.335Z,61.30
2022-11-02T09:20:10.638Z,59.91
2022-11-02T09:25:13.319Z,55.94
2022-11-02T09:30:14.704Z,55.57
2022-11-02T09:35:16.051Z,56.24
2022-11-02T09:40:21.530Z,53.18
2022-11-02T09:45:23.403Z,52.16
2022-11-02T09:50:33.932Z,53.58
2022-11-02T09:55:37.601Z,51.46
2022-11-02T10:00:41.951Z,50.40
2022-11-02T10:05:53.004Z,50.04
2022-11-02T10:11:18.709Z,48.05
2022-11-02T10:16:25.011Z,47.25
2022-11-02T10:21:32.455Z,48.22
2022-11-02T10:26:37.307Z,45.37
2022-11-02T10:31:38.630Z,48.36
2022-11-02T10:37:07.603Z,50.17
2022-11-02T10:42:40.128Z,48.70
2022-11-02T10:48:07.802Z,46.87
2022-11-02T10:53:39.335Z,48.83
2022-11-02T10:58:40.713Z,34.20
2022-11-02T11:03:56.583Z,26.52
2022-11-02T11:09:20.138Z,24.37
2022-11-02T11:19:52.974Z,21.36
2022-11-02T11:25:27.561Z,22.04
2022-11-02T11:35:57.783Z,31.99
2022-11-02T11:41:00.006Z,34.96
2022-11-02T11:46:06.594Z,25.30
2022-11-02T11:51:36.892Z,24.53
2022-11-02T11:56:38.265Z,24.65
2022-11-02T12:01:40.284Z,22.88
2022-11-02T12:06:55.396Z,27.13
2022-11-02T12:12:24.528Z,21.41
2022-11-02T12:17:46.766Z,18.86
2022-11-02T12:23:18.970Z,24.06
2022-11-02T12:28:29.989Z,26.42
2022-11-02T12:34:05.343Z,20.23
2022-11-02T12:39:45.786Z,17.58
2022-11-02T12:45:26.456Z,16.39
2022-11-02T12:50:52.300Z,16.33
2022-11-02T12:55:57.765Z,20.49
2022-11-02T13:01:13.325Z,20.48
2022-11-02T13:06:19.550Z,18.57
2022-11-02T13:11:31.727Z,16.59
2022-11-02T13:16:54.619Z,17.03
2022-11-02T13:21:58.147Z,16.30
2022-11-02T13:27:21.687Z,18.11
2022-11-02T13:32:46.857Z,18.04
2022-11-02T13:37:55.279Z,19.59
2022-11-02T13:43:07.201Z,17.69
2022-11-02T13:48:27.150Z,16.91
2022-11-02T13:53:37.287Z,17.58
2022-11-02T13:58:46.701Z,17.34
2022-11-02T14:04:00.476Z,17.54
2022-11-02T14:09:07.559Z,18.74
2022-11-02T14:14:11.900Z,20.93
2022-11-02T14:19:21.999Z,22.58
2022-11-02T14:24:32.360Z,25.62
2022-11-02T14:29:44.684Z,25.78
2022-11-02T14:35:23.887Z,24.37
2022-11-02T14:40:36.120Z,24.14
2022-11-02T14:45:50.295Z,26.34
2022-11-02T14:51:16.160Z,30.34
2022-11-02T14:56:17.551Z,33.06
2022-11-02T15:01:19.644Z,34.81
2022-11-02T15:06:26.856Z,36.49
2022-11-02T15:11:49.521Z,37.67
2022-11-02T15:16:50.901Z,39.10
2022-11-02T15:21:53.171Z,39.75
2022-11-02T15:27:00.256Z,39.90
2022-11-02T15:32:03.592Z,40.55
2022-11-02T15:37:05.715Z,40.51
2022-11-02T15:42:36.023Z,41.30
2022-11-02T15:47:56.059Z,41.76
2022-11-02T15:53:22.247Z,42.74
2022-11-02T15:58:31.613Z,42.90
2022-11-02T16:03:33.687Z,44.06
2022-11-02T16:08:37.839Z,44.01
2022-11-02T16:13:55.694Z,44.18
2022-11-02T16:19:01.110Z,44.62
2022-11-02T16:24:02.453Z,45.16
2022-11-02T16:29:08.450Z,45.97
2022-11-02T16:34:21.965Z,46.08
2022-11-02T16:39:39.459Z,45.99
2022-11-02T16:44:43.054Z,46.75
2022-11-02T16:49:57.628Z,47.47
2022-11-02T16:54:59.198Z,47.71
2022-11-02T17:00:04.973Z,47.94
2022-11-02T17:05:18.077Z,48.35
2022-11-02T17:10:23.841Z,48.61
2022-11-02T17:15:27.164Z,48.88
2022-11-02T17:20:29.084Z,49.48
2022-11-02T17:25:48.465Z,49.86
2022-11-02T17:30:51.562Z,51.19
2022-11-02T17:35:56.463Z,51.64
2022-11-02T17:40:59.605Z,51.98
2022-11-02T17:46:01.107Z,51.93
2022-11-02T17:51:02.468Z,52.40
2022-11-02T17:56:04.187Z,52.59
2022-11-02T18:01:05.891Z,52.44
2022-11-02T18:06:07.545Z,53.07
2022-11-02T18:11:09.056Z,54.47
2022-11-02T18:16:10.536Z,52.99
2022-11-02T18:21:12.088Z,53.02
2022-11-02T18:26:13.879Z,55.60
2022-11-02T18:31:15.249Z,54.13
2022-11-02T18:36:16.593Z,53.73
2022-11-02T18:41:30.804Z,54.39
2022-11-02T18:46:32.550Z,55.20
2022-11-02T18:51:33.968Z,56.32
2022-11-02T18:56:35.374Z,55.31
2022-11-02T19:01:36.918Z,57.34
2022-11-02T19:06:57.130Z,57.25
2022-11-02T19:12:05.253Z,56.34
2022-11-02T19:17:08.283Z,58.33
2022-11-02T19:22:13.036Z,57.20
2022-11-02T19:27:16.849Z,59.54
2022-11-02T19:32:18.866Z,59.29
2022-11-02T19:37:20.241Z,57.91
2022-11-02T19:42:21.544Z,58.97
2022-11-02T19:47:22.896Z,59.79
2022-11-02T19:52:24.504Z,61.30
2022-11-02T19:57:29.377Z,59.15
2022-11-02T20:02:34.449Z,60.02
2022-11-02T20:07:35.814Z,60.42
2022-11-02T20:12:37.097Z,62.45
2022-11-02T20:17:52.376Z,60.47
2022-11-02T20:22:59.870Z,62.89
2022-11-02T20:28:01.195Z,61.18
2022-11-02T20:33:02.512Z,61.96
2022-11-02T20:38:04.309Z,61.92
2022-11-02T20:43:06.944Z,62.27
2022-11-02T20:48:08.586Z,62.14
2022-11-02T20:53:10.125Z,63.06
2022-11-02T20:58:11.547Z,63.13
2022-11-02T21:03:13.726Z,64.89
2022-11-02T21:08:15.551Z,63.61
2022-11-02T21:13:35.402Z,64.83
2022-11-02T21:18:37.055Z,64.55
2022-11-02T21:23:38.418Z,65.22
2022-11-02T21:28:42.121Z,64.88
2022-11-02T21:33:44.610Z,65.24
2022-11-02T21:38:46.902Z,64.76
2022-11-02T21:43:51.771Z,65.49
2022-11-02T21:48:55.124Z,65.77
2022-11-02T21:53:56.759Z,64.86
2022-11-02T21:58:58.287Z,64.29
2022-11-02T22:04:00.112Z,65.40
2022-11-02T22:09:01.893Z,65.77
2022-11-02T22:14:03.698Z,66.11
2022-11-02T22:19:10.403Z,66.54
2022-11-02T22:24:12.393Z,66.06
2022-11-02T22:29:13.689Z,67.63
2022-11-02T22:34:15.655Z,66.02
2022-11-02T22:39:17.048Z,65.72
2022-11-02T22:44:20.951Z,65.69
2022-11-02T22:49:22.303Z,66.51
2022-11-02T22:54:23.646Z,66.79
2022-11-02T22:59:24.935Z,67.05
2022-11-02T23:04:26.279Z,67.44
2022-11-02T23:09:27.563Z,67.30
2022-11-02T23:14:28.897Z,67.09
2022-11-02T23:19:30.431Z,67.06
2022-11-02T23:24:50.476Z,67.20
2022-11-02T23:30:10.303Z,66.71
2022-11-02T23:35:30.261Z,66.64
2022-11-02T23:40:32.658Z,66.99
2022-11-02T23:45:34.640Z,66.78
2022-11-02T23:50:54.937Z,68.11
2022-11-02T23:56:15.699Z,67.16
